Time;durP1;ratioP1;P1;durP2;ratioP2;P2;SDS_P1;SDS_P2;PMS_P1;PMS_P2;Temp;Humidity;BMP_temperature;BMP_pressure;BME280_temperature;BME280_humidity;BME280_pressure;Samples;Min_cycle;Max_cycle;Signal;HPM_P1;HPM_P2
2023/07/29 00:01:01;;;;;;;2.42;0.60;;;18.80;99.90;;;;;;5032636;28;20021;-34
2023/07/29 00:03:27;;;;;;;1.98;0.63;;;18.80;99.90;;;;;;5032627;28;20040;-35
2023/07/29 00:05:52;;;;;;;2.60;1.08;;;18.80;99.90;;;;;;5032603;28;20029;-34
2023/07/29 00:08:18;;;;;;;1.55;0.60;;;18.80;99.90;;;;;;5032441;28;20030;-35
2023/07/29 00:10:44;;;;;;;0.80;0.57;;;18.90;99.90;;;;;;5037033;28;20029;-34
2023/07/29 00:13:09;;;;;;;4.90;0.80;;;18.80;99.90;;;;;;5052522;28;20492;-34
2023/07/29 00:15:35;;;;;;;2.88;0.80;;;18.80;99.90;;;;;;5052697;28;20025;-34
2023/07/29 00:18:00;;;;;;;1.60;0.82;;;18.80;99.90;;;;;;5052355;28;20057;-36
2023/07/29 00:20:26;;;;;;;0.98;0.65;;;18.90;99.90;;;;;;5046869;28;20037;-34
2023/07/29 00:22:54;;;;;;;3.40;1.00;;;18.90;99.90;;;;;;5045601;28;20028;-35
2023/07/29 00:25:21;;;;;;;1.40;0.88;;;18.80;99.90;;;;;;5051820;28;20428;-34
2023/07/29 00:27:47;;;;;;;2.40;1.13;;;18.80;99.90;;;;;;5044451;28;20025;-34
2023/07/29 00:30:13;;;;;;;3.33;1.25;;;18.80;99.90;;;;;;5039975;28;20284;-34
2023/07/29 00:32:38;;;;;;;3.22;1.55;;;18.80;99.90;;;;;;5032435;28;20036;-34
2023/07/29 00:35:04;;;;;;;5.32;1.27;;;18.80;99.90;;;;;;5030616;28;20075;-34
2023/07/29 00:37:30;;;;;;;1.35;0.80;;;18.80;99.90;;;;;;5033097;28;20041;-34
2023/07/29 00:39:56;;;;;;;2.55;1.23;;;18.80;99.90;;;;;;5039982;28;20017;-35
2023/07/29 00:42:22;;;;;;;3.28;1.23;;;18.80;99.90;;;;;;5035237;28;20060;-35
2023/07/29 00:44:48;;;;;;;2.90;1.45;;;18.80;99.90;;;;;;5040637;28;20013;-35
2023/07/29 00:47:15;;;;;;;2.58;1.15;;;18.80;99.90;;;;;;5051962;28;20022;-51
2023/07/29 00:49:42;;;;;;;1.05;0.95;;;18.80;99.90;;;;;;5039132;28;20460;-52
2023/07/29 00:52:11;;;;;;;2.30;1.23;;;18.80;99.90;;;;;;5035991;28;20029;-48
2023/07/29 00:54:36;;;;;;;5.47;1.70;;;18.80;99.90;;;;;;5036128;28;20029;-52
2023/07/29 00:57:03;;;;;;;2.67;1.02;;;18.80;99.90;;;;;;5034565;28;20022;-54
2023/07/29 00:59:30;;;;;;;5.13;1.52;;;18.80;99.90;;;;;;5041950;28;20029;-46
2023/07/29 01:01:56;;;;;;;6.30;1.38;;;18.70;99.90;;;;;;5051580;28;20029;-53
2023/07/29 01:04:21;;;;;;;4.63;2.00;;;18.70;99.90;;;;;;5054613;28;20041;-51
2023/07/29 01:06:50;;;;;;;1.52;1.30;;;18.70;99.90;;;;;;5055035;28;20496;-48
2023/07/29 01:09:30;;;;;;;3.72;1.40;;;18.70;99.90;;;;;;5055365;28;20119;-50
2023/07/29 01:12:08;;;;;;;5.15;1.60;;;18.70;99.90;;;;;;5055800;28;20055;-50
2023/07/29 01:15:06;;;;;;;2.78;1.60;;;18.60;99.90;;;;;;5055485;28;20036;-50
2023/07/29 01:17:36;;;;;;;6.45;1.85;;;18.60;99.90;;;;;;5053999;28;20087;-46
2023/07/29 01:20:05;;;;;;;3.55;1.55;;;18.60;99.90;;;;;;5054443;28;20021;-48
2023/07/29 01:22:33;;;;;;;2.92;1.50;;;18.50;99.90;;;;;;5053770;28;20057;-51
2023/07/29 01:24:59;;;;;;;7.28;2.92;;;18.60;99.90;;;;;;5034023;28;20034;-51
2023/07/29 01:27:26;;;;;;;5.28;1.40;;;18.60;99.90;;;;;;5035578;28;20367;-51
2023/07/29 01:29:53;;;;;;;5.38;1.92;;;18.50;99.90;;;;;;5035409;28;20431;-36
2023/07/29 01:32:41;;;;;;;3.92;1.83;;;18.50;99.90;;;;;;5035047;28;20041;-34
2023/07/29 01:35:22;;;;;;;2.75;1.40;;;18.40;99.90;;;;;;5035085;28;20029;-34
2023/07/29 01:37:51;;;;;;;5.00;1.70;;;18.40;99.90;;;;;;5046515;28;20039;-36
2023/07/29 01:40:18;;;;;;;2.95;1.20;;;18.40;99.90;;;;;;5054881;28;20021;-34
2023/07/29 01:42:45;;;;;;;1.92;1.40;;;18.40;99.90;;;;;;5054947;28;20576;-35
2023/07/29 01:45:11;;;;;;;3.15;1.75;;;18.40;99.90;;;;;;5054810;28;20021;-34
2023/07/29 01:47:40;;;;;;;8.98;1.80;;;18.40;99.90;;;;;;5054579;28;20112;-35
2023/07/29 01:50:06;;;;;;;5.38;2.05;;;18.40;99.90;;;;;;5054732;28;20021;-35
2023/07/29 01:52:32;;;;;;;2.90;1.80;;;18.40;99.90;;;;;;5051840;28;20474;-35
2023/07/29 01:54:58;;;;;;;4.47;1.77;;;18.30;99.90;;;;;;5034974;28;20034;-36
2023/07/29 01:57:23;;;;;;;3.17;1.85;;;18.30;99.90;;;;;;5034709;28;20075;-35
2023/07/29 01:59:49;;;;;;;4.95;2.05;;;18.30;99.90;;;;;;5036943;28;20103;-36
2023/07/29 02:02:14;;;;;;;6.53;2.40;;;18.30;99.90;;;;;;5054196;28;20108;-48
2023/07/29 02:04:40;;;;;;;4.07;2.63;;;18.30;99.90;;;;;;5054438;28;20074;-52
2023/07/29 02:07:06;;;;;;;10.88;2.63;;;18.30;99.90;;;;;;5054226;28;20037;-51
2023/07/29 02:09:31;;;;;;;8.57;3.00;;;18.30;99.90;;;;;;5052334;28;20029;-52
2023/07/29 02:11:57;;;;;;;3.30;2.53;;;18.30;99.90;;;;;;5054393;28;20024;-49
2023/07/29 02:14:23;;;;;;;5.47;2.70;;;18.30;99.90;;;;;;5054060;28;20132;-57
2023/07/29 02:16:49;;;;;;;4.63;2.47;;;18.20;99.90;;;;;;5054228;28;20037;-51
2023/07/29 02:19:15;;;;;;;4.85;2.33;;;18.20;99.90;;;;;;5053038;28;20445;-51
2023/07/29 02:21:41;;;;;;;10.85;2.90;;;18.20;99.90;;;;;;5053931;28;20017;-52
2023/07/29 02:24:22;;;;;;;4.00;1.88;;;18.20;99.90;;;;;;5038600;28;20022;-49
2023/07/29 02:26:47;;;;;;;2.17;1.98;;;18.20;99.90;;;;;;5042525;28;20128;-47
2023/07/29 02:29:13;;;;;;;7.10;2.28;;;18.20;99.90;;;;;;5048460;28;20115;-44
2023/07/29 02:31:39;;;;;;;5.18;2.65;;;18.20;99.90;;;;;;5051902;28;20432;-50
2023/07/29 02:34:05;;;;;;;5.63;2.28;;;18.20;99.90;;;;;;5051561;28;20112;-55
2023/07/29 02:36:30;;;;;;;3.08;1.80;;;18.20;99.90;;;;;;5046524;28;20044;-50
2023/07/29 02:38:56;;;;;;;3.53;1.90;;;18.10;99.90;;;;;;5048896;28;20465;-51
2023/07/29 02:41:22;;;;;;;3.67;1.40;;;18.10;99.90;;;;;;5053759;28;20385;-52
2023/07/29 02:43:51;;;;;;;3.17;1.67;;;18.10;99.90;;;;;;5053256;28;20029;-52
2023/07/29 02:46:17;;;;;;;3.55;1.90;;;18.10;99.90;;;;;;5053939;28;20473;-52
2023/07/29 02:48:44;;;;;;;4.45;2.00;;;18.10;99.90;;;;;;5053459;28;20044;-52
2023/07/29 02:51:10;;;;;;;5.97;1.95;;;18.10;99.90;;;;;;5053942;28;20021;-50
2023/07/29 02:53:38;;;;;;;4.30;1.70;;;18.10;99.90;;;;;;5053450;28;20032;-50
2023/07/29 02:56:04;;;;;;;4.75;1.90;;;18.00;99.90;;;;;;5039608;28;20080;-52
2023/07/29 02:58:30;;;;;;;3.80;1.85;;;18.00;99.90;;;;;;5033554;28;20022;-52
2023/07/29 03:01:03;;;;;;;3.05;1.77;;;18.00;99.90;;;;;;5039182;28;20029;-52
2023/07/29 03:03:29;;;;;;;5.25;2.30;;;18.00;99.90;;;;;;5053380;28;20044;-48
2023/07/29 03:06:06;;;;;;;3.78;2.00;;;17.90;99.90;;;;;;5053273;28;20037;-49
2023/07/29 03:08:32;;;;;;;6.40;1.80;;;17.90;99.90;;;;;;5053489;28;20366;-50
2023/07/29 03:10:58;;;;;;;2.08;1.50;;;17.90;99.90;;;;;;5052965;28;20103;-52
2023/07/29 03:13:23;;;;;;;3.97;1.48;;;17.90;99.90;;;;;;5053286;28;20478;-63
2023/07/29 03:15:49;;;;;;;4.45;1.85;;;17.90;99.90;;;;;;5053106;28;20083;-52
2023/07/29 03:18:15;;;;;;;5.85;1.45;;;17.90;99.90;;;;;;5052612;28;20469;-48
2023/07/29 03:20:41;;;;;;;4.13;1.88;;;17.80;99.90;;;;;;5053047;28;20552;-50
2023/07/29 03:23:07;;;;;;;8.45;2.22;;;17.80;99.90;;;;;;5053379;28;20025;-34
2023/07/29 03:25:32;;;;;;;2.95;1.35;;;17.90;99.90;;;;;;5052914;28;20116;-52
2023/07/29 03:27:58;;;;;;;4.97;1.48;;;17.90;99.90;;;;;;5052695;28;20075;-49
2023/07/29 03:30:24;;;;;;;1.95;1.42;;;17.80;99.90;;;;;;5052866;28;20025;-52
2023/07/29 03:32:50;;;;;;;2.55;1.40;;;17.80;99.90;;;;;;5052657;28;20116;-50
2023/07/29 03:35:16;;;;;;;1.70;1.58;;;17.80;99.90;;;;;;5052095;28;20474;-50
2023/07/29 03:37:42;;;;;;;3.25;1.50;;;17.80;99.90;;;;;;5053076;28;20027;-49
2023/07/29 03:40:09;;;;;;;1.80;1.70;;;17.80;99.90;;;;;;5052728;28;20033;-48
2023/07/29 03:42:35;;;;;;;6.97;1.60;;;17.80;99.90;;;;;;5052990;28;20033;-53
2023/07/29 03:45:01;;;;;;;1.50;1.40;;;17.80;99.90;;;;;;5052659;28;20083;-51
2023/07/29 03:47:27;;;;;;;3.78;1.40;;;17.80;99.90;;;;;;5051378;28;20033;-52
2023/07/29 03:49:53;;;;;;;2.13;1.30;;;17.80;99.90;;;;;;5052657;28;20033;-48
2023/07/29 03:52:18;;;;;;;1.77;1.27;;;17.80;99.90;;;;;;5051820;28;20388;-53
2023/07/29 03:54:45;;;;;;;3.72;1.40;;;17.80;99.90;;;;;;5034821;28;20021;-53
2023/07/29 03:57:10;;;;;;;2.63;1.30;;;17.80;99.90;;;;;;5051383;28;20508;-50
2023/07/29 03:59:36;;;;;;;3.80;1.52;;;17.80;99.90;;;;;;5051595;28;20021;-34
2023/07/29 04:02:01;;;;;;;3.63;1.50;;;17.70;99.90;;;;;;5052602;28;20105;-35
2023/07/29 04:04:27;;;;;;;1.17;1.08;;;17.80;99.90;;;;;;5052590;28;20032;-35
2023/07/29 04:06:53;;;;;;;7.53;1.88;;;17.70;99.90;;;;;;5052747;28;20052;-35
2023/07/29 04:09:18;;;;;;;3.13;1.70;;;17.70;99.90;;;;;;5051652;28;20035;-35
2023/07/29 04:11:44;;;;;;;1.85;1.30;;;17.70;99.90;;;;;;5052415;28;20029;-34
2023/07/29 04:14:09;;;;;;;3.78;1.35;;;17.60;99.90;;;;;;5052444;28;20060;-35
2023/07/29 04:16:35;;;;;;;2.72;1.50;;;17.70;99.90;;;;;;5052441;28;20021;-53
2023/07/29 04:19:01;;;;;;;2.03;1.80;;;17.70;99.90;;;;;;5052325;28;20032;-48
2023/07/29 04:21:27;;;;;;;2.70;1.48;;;17.70;99.90;;;;;;5052686;28;20100;-54
2023/07/29 04:23:52;;;;;;;2.92;1.52;;;17.60;99.90;;;;;;5054334;28;20025;-52
2023/07/29 04:26:18;;;;;;;3.42;1.50;;;17.70;99.90;;;;;;5055666;28;20028;-51
2023/07/29 04:28:44;;;;;;;2.00;1.80;;;17.60;99.90;;;;;;5056019;28;20029;-51
2023/07/29 04:31:09;;;;;;;2.75;1.90;;;17.60;99.90;;;;;;5056112;28;20017;-49
2023/07/29 04:33:35;;;;;;;2.42;1.48;;;17.60;99.90;;;;;;5054798;28;20428;-54
2023/07/29 04:36:00;;;;;;;5.72;1.30;;;17.60;99.90;;;;;;5056135;28;20100;-53
2023/07/29 04:38:34;;;;;;;4.18;1.90;;;17.60;99.90;;;;;;5056072;28;20025;-53
2023/07/29 04:41:06;;;;;;;5.60;1.55;;;17.60;99.90;;;;;;5056126;28;20067;-48
2023/07/29 04:43:32;;;;;;;1.80;1.40;;;17.60;99.90;;;;;;5054364;28;20033;-51
2023/07/29 04:45:59;;;;;;;1.35;1.25;;;17.50;99.90;;;;;;5056010;28;20063;-52
2023/07/29 04:48:25;;;;;;;6.10;1.80;;;17.50;99.90;;;;;;5055517;28;20041;-52
2023/07/29 04:50:51;;;;;;;2.42;1.80;;;17.60;99.90;;;;;;5056137;28;20347;-34
2023/07/29 04:53:16;;;;;;;3.45;1.35;;;17.50;99.90;;;;;;5055871;28;20032;-50
2023/07/29 04:55:43;;;;;;;3.92;1.73;;;17.50;99.90;;;;;;5055894;28;20120;-50
2023/07/29 04:58:09;;;;;;;3.22;1.85;;;17.60;99.90;;;;;;5055738;28;20396;-52
2023/07/29 05:00:34;;;;;;;3.15;1.55;;;17.60;99.90;;;;;;5054765;28;20124;-50
2023/07/29 05:03:01;;;;;;;1.60;1.40;;;17.60;99.90;;;;;;5055714;28;20033;-48
2023/07/29 05:05:27;;;;;;;2.90;1.95;;;17.60;99.90;;;;;;5055905;28;20520;-53
2023/07/29 05:07:52;;;;;;;2.97;1.88;;;17.60;99.90;;;;;;5055454;28;20025;-52
2023/07/29 05:10:19;;;;;;;4.25;2.05;;;17.60;99.90;;;;;;5055430;28;20488;-53
2023/07/29 05:12:44;;;;;;;12.52;1.70;;;17.60;99.90;;;;;;5055681;28;20512;-53
2023/07/29 05:15:10;;;;;;;3.83;1.60;;;17.60;99.90;;;;;;5055342;28;20061;-53
2023/07/29 05:17:36;;;;;;;2.38;1.40;;;17.60;99.90;;;;;;5054789;28;20025;-51
2023/07/29 05:20:02;;;;;;;5.68;1.35;;;17.60;99.90;;;;;;5055224;28;20032;-51
2023/07/29 05:22:28;;;;;;;3.25;1.42;;;17.60;99.90;;;;;;5055353;28;20100;-53
2023/07/29 05:24:54;;;;;;;2.80;2.10;;;17.70;99.90;;;;;;5055464;28;20112;-52
2023/07/29 05:27:19;;;;;;;3.53;2.03;;;17.70;99.90;;;;;;5055204;28;20021;-56
2023/07/29 05:29:45;;;;;;;4.55;2.47;;;17.70;99.90;;;;;;5053802;28;20049;-51
2023/07/29 05:32:10;;;;;;;4.82;2.20;;;17.70;99.90;;;;;;5044459;28;20057;-50
2023/07/29 05:34:36;;;;;;;2.97;1.60;;;17.80;99.90;;;;;;5049787;28;20074;-52
2023/07/29 05:37:02;;;;;;;5.22;2.35;;;17.80;99.90;;;;;;5054976;28;20466;-50
2023/07/29 05:39:27;;;;;;;3.67;1.95;;;17.80;99.90;;;;;;5054921;28;20091;-53
2023/07/29 05:41:53;;;;;;;4.35;2.38;;;17.90;99.90;;;;;;5054030;28;20036;-50
2023/07/29 05:44:19;;;;;;;3.13;1.88;;;17.80;99.90;;;;;;5054892;28;20111;-52
2023/07/29 05:46:44;;;;;;;5.50;2.47;;;17.80;99.90;;;;;;5055179;28;20466;-52
2023/07/29 05:49:10;;;;;;;5.32;2.42;;;17.90;99.90;;;;;;5054583;28;20048;-53
2023/07/29 05:51:36;;;;;;;4.57;2.63;;;18.00;99.90;;;;;;5052774;28;20397;-50
2023/07/29 05:54:02;;;;;;;4.95;2.33;;;18.10;99.90;;;;;;5054816;28;20025;-52
2023/07/29 05:56:27;;;;;;;7.20;2.33;;;18.10;99.90;;;;;;5054694;28;20029;-52
2023/07/29 05:58:53;;;;;;;4.68;2.10;;;18.20;99.90;;;;;;5054658;28;20053;-50
2023/07/29 06:01:21;;;;;;;3.65;2.53;;;18.10;99.90;;;;;;5054830;28;20045;-50
2023/07/29 06:03:47;;;;;;;3.25;2.28;;;18.20;99.90;;;;;;5054566;28;20021;-56
2023/07/29 06:06:13;;;;;;;4.55;3.00;;;18.40;99.90;;;;;;5054288;28;20100;-52
2023/07/29 06:08:39;;;;;;;7.40;2.38;;;18.50;99.90;;;;;;5053616;28;20029;-53
2023/07/29 06:11:06;;;;;;;4.72;2.50;;;18.50;99.90;;;;;;5054674;28;20474;-50
2023/07/29 06:13:32;;;;;;;4.93;1.80;;;18.50;99.90;;;;;;5054603;28;20074;-52
2023/07/29 06:15:58;;;;;;;5.70;2.38;;;18.50;99.90;;;;;;5054290;28;20013;-49
2023/07/29 06:18:24;;;;;;;8.10;2.70;;;18.50;99.90;;;;;;5053282;28;20029;-35
2023/07/29 06:20:51;;;;;;;5.97;2.65;;;18.50;99.90;;;;;;5054229;28;20017;-36
2023/07/29 06:23:17;;;;;;;3.40;2.30;;;18.60;99.90;;;;;;5054180;28;20031;-49
2023/07/29 06:25:43;;;;;;;6.85;3.58;;;18.60;99.90;;;;;;5053205;28;20032;-50
2023/07/29 06:28:09;;;;;;;9.25;2.92;;;18.70;99.90;;;;;;5053908;28;20143;-50
2023/07/29 06:30:35;;;;;;;4.68;3.00;;;18.80;99.90;;;;;;5052832;28;20025;-34
2023/07/29 06:33:03;;;;;;;13.52;3.33;;;19.00;99.90;;;;;;5039289;28;20497;-38
2023/07/29 06:35:29;;;;;;;4.97;3.30;;;19.10;99.90;;;;;;5053868;28;20036;-35
2023/07/29 06:37:57;;;;;;;4.53;2.63;;;19.20;99.90;;;;;;5053831;28;20103;-35
2023/07/29 06:40:23;;;;;;;3.78;2.38;;;19.20;99.90;;;;;;5053780;28;20025;-35
2023/07/29 06:42:49;;;;;;;6.60;2.88;;;19.20;99.90;;;;;;5053062;28;20032;-35
2023/07/29 06:45:15;;;;;;;4.65;2.85;;;19.20;99.90;;;;;;5053473;28;20098;-36
2023/07/29 06:47:41;;;;;;;5.68;2.97;;;19.30;99.90;;;;;;5053391;28;20381;-35
2023/07/29 06:50:07;;;;;;;8.23;2.60;;;19.20;99.90;;;;;;5053573;28;20029;-35
2023/07/29 06:52:32;;;;;;;3.88;2.55;;;19.20;99.90;;;;;;5053639;28;20387;-35
2023/07/29 06:54:58;;;;;;;4.05;2.50;;;19.20;99.90;;;;;;5053815;28;20505;-34
2023/07/29 06:57:24;;;;;;;6.07;2.80;;;19.30;99.90;;;;;;5053698;28;20017;-36
2023/07/29 06:59:49;;;;;;;9.38;2.75;;;19.20;99.90;;;;;;5039477;28;20057;-35
2023/07/29 07:02:15;;;;;;;6.93;3.10;;;19.20;99.90;;;;;;5032256;28;20013;-35
2023/07/29 07:04:41;;;;;;;4.85;2.67;;;19.20;99.90;;;;;;5033363;28;20109;-35
2023/07/29 07:07:06;;;;;;;3.30;2.45;;;19.10;99.90;;;;;;5033424;28;20025;-36
2023/07/29 07:09:32;;;;;;;5.78;2.63;;;19.10;99.90;;;;;;5033256;28;20029;-36
2023/07/29 07:11:58;;;;;;;4.38;2.70;;;19.00;99.90;;;;;;5033295;28;20040;-35
2023/07/29 07:14:23;;;;;;;4.43;2.75;;;19.00;99.90;;;;;;5032009;28;20028;-35
2023/07/29 07:16:49;;;;;;;9.18;2.63;;;19.00;99.90;;;;;;5046570;28;20104;-36
2023/07/29 07:19:15;;;;;;;3.50;2.38;;;19.10;99.90;;;;;;5056016;28;20031;-35
2023/07/29 07:21:41;;;;;;;9.30;2.83;;;19.10;99.90;;;;;;5073088;28;20056;-35
2023/07/29 07:24:07;;;;;;;4.03;2.55;;;19.20;99.90;;;;;;5067246;28;20497;-50
2023/07/29 07:26:32;;;;;;;3.85;2.38;;;19.30;99.90;;;;;;5056815;28;20040;-52
2023/07/29 07:28:58;;;;;;;4.68;2.40;;;19.40;99.90;;;;;;5044029;28;20052;-52
2023/07/29 07:31:24;;;;;;;4.63;3.55;;;19.50;99.90;;;;;;5051953;28;20057;-53
2023/07/29 07:33:49;;;;;;;3.33;3.08;;;19.50;99.90;;;;;;5048573;28;20021;-53
2023/07/29 07:36:15;;;;;;;2.78;2.47;;;19.70;99.90;;;;;;5052696;28;20044;-50
2023/07/29 07:38:41;;;;;;;3.78;2.40;;;19.90;99.90;;;;;;5052695;28;20477;-49
2023/07/29 07:41:07;;;;;;;3.28;2.97;;;20.00;99.90;;;;;;5052740;28;20029;-51
2023/07/29 07:43:32;;;;;;;7.47;4.32;;;20.00;99.90;;;;;;5052768;28;20025;-55
2023/07/29 07:46:00;;;;;;;4.57;3.22;;;20.20;99.90;;;;;;5052625;28;20025;-35
2023/07/29 07:48:26;;;;;;;5.43;3.70;;;20.50;99.90;;;;;;5052308;28;20048;-35
2023/07/29 07:50:51;;;;;;;4.25;2.90;;;20.60;99.90;;;;;;5036652;28;20143;-33
2023/07/29 07:53:17;;;;;;;5.90;2.50;;;20.80;99.90;;;;;;5031902;28;20045;-35
2023/07/29 07:55:43;;;;;;;4.40;3.05;;;20.70;99.90;;;;;;5032137;28;20025;-34
2023/07/29 07:58:08;;;;;;;2.92;2.35;;;20.60;99.90;;;;;;5030717;28;20026;-35
2023/07/29 08:00:34;;;;;;;2.95;2.65;;;20.50;99.90;;;;;;5032009;28;20079;-32
2023/07/29 08:03:00;;;;;;;8.43;2.53;;;20.50;99.90;;;;;;5032049;28;20021;-35
2023/07/29 08:05:25;;;;;;;2.78;2.05;;;20.50;99.90;;;;;;5031810;28;20029;-34
2023/07/29 08:07:51;;;;;;;6.75;2.13;;;20.60;99.90;;;;;;5044412;28;20021;-47
2023/07/29 08:10:16;;;;;;;3.20;1.98;;;20.60;99.90;;;;;;5051558;28;20021;-36
2023/07/29 08:12:42;;;;;;;1.67;1.58;;;20.60;99.90;;;;;;5051876;28;20373;-35
2023/07/29 08:15:08;;;;;;;5.55;1.92;;;20.50;99.90;;;;;;5051533;28;20490;-36
2023/07/29 08:17:33;;;;;;;2.05;1.88;;;20.50;99.90;;;;;;5051102;28;20032;-36
2023/07/29 08:19:59;;;;;;;2.85;1.80;;;20.50;99.90;;;;;;5051155;28;20031;-34
2023/07/29 08:22:25;;;;;;;2.80;1.98;;;20.50;99.90;;;;;;5034489;28;20034;-34
2023/07/29 08:24:50;;;;;;;5.70;2.15;;;20.50;99.90;;;;;;5044951;28;20500;-34
2023/07/29 08:27:16;;;;;;;2.70;2.10;;;20.40;99.90;;;;;;5051691;28;20071;-35
2023/07/29 08:29:42;;;;;;;7.82;2.50;;;20.40;99.90;;;;;;5050831;28;20029;-34
2023/07/29 08:32:07;;;;;;;9.52;2.35;;;20.30;99.90;;;;;;5051371;28;20032;-34
2023/07/29 08:34:33;;;;;;;1.85;1.75;;;20.20;99.90;;;;;;5051541;28;20021;-33
2023/07/29 08:36:59;;;;;;;3.00;1.55;;;20.00;99.90;;;;;;5051314;28;20021;-33
2023/07/29 08:39:25;;;;;;;1.60;1.40;;;20.00;99.90;;;;;;5051259;28;20052;-34
2023/07/29 08:41:56;;;;;;;5.30;1.63;;;19.90;99.90;;;;;;5037347;28;20084;-36
2023/07/29 08:44:24;;;;;;;2.67;2.15;;;19.90;99.90;;;;;;5031372;28;20028;-35
2023/07/29 08:46:50;;;;;;;2.47;2.17;;;19.90;99.90;;;;;;5031277;28;20561;-34
2023/07/29 08:49:22;;;;;;;6.70;2.70;;;19.80;99.90;;;;;;4993653;28;1102138;-36
2023/07/29 08:51:49;;;;;;;3.63;3.10;;;19.80;99.90;;;;;;5032209;28;20490;-41
2023/07/29 08:54:15;;;;;;;5.00;2.40;;;20.10;99.90;;;;;;5032201;28;20053;-33
2023/07/29 08:56:42;;;;;;;2.88;2.40;;;20.50;99.90;;;;;;5038653;28;20017;-36
2023/07/29 08:59:10;;;;;;;2.75;2.10;;;20.90;99.90;;;;;;5050728;28;20071;-34
2023/07/29 09:01:39;;;;;;;2.65;2.45;;;21.20;99.90;;;;;;5052150;28;20351;-35
2023/07/29 09:04:05;;;;;;;3.35;2.30;;;21.10;99.90;;;;;;5050304;28;20037;-34
2023/07/29 09:06:32;;;;;;;3.03;2.13;;;21.00;99.90;;;;;;5051935;28;20075;-36
2023/07/29 09:08:59;;;;;;;2.63;2.20;;;21.10;99.90;;;;;;5052595;28;20453;-35
2023/07/29 09:11:25;;;;;;;3.13;1.98;;;21.10;99.90;;;;;;5055304;28;20116;-35
2023/07/29 09:13:52;;;;;;;3.60;2.25;;;20.90;99.90;;;;;;5055464;28;20049;-54
2023/07/29 09:16:19;;;;;;;4.97;2.78;;;20.80;99.90;;;;;;5055006;28;20029;-51
2023/07/29 09:18:51;;;;;;;3.97;2.65;;;20.80;99.90;;;;;;5054925;28;20059;-53
2023/07/29 09:21:28;;;;;;;5.60;2.10;;;20.90;99.90;;;;;;5044403;28;20056;-51
2023/07/29 09:23:55;;;;;;;4.60;2.25;;;21.00;99.90;;;;;;5035266;28;20028;-53
2023/07/29 09:26:25;;;;;;;1.92;1.73;;;20.90;99.90;;;;;;5051035;28;20025;-52
2023/07/29 09:28:58;;;;;;;3.28;2.38;;;20.80;99.90;;;;;;5055184;28;20473;-50
2023/07/29 09:31:28;;;;;;;5.13;2.08;;;20.70;99.90;;;;;;5054323;28;20163;-52
2023/07/29 09:34:03;;;;;;;2.60;2.05;;;20.50;99.90;;;;;;5055297;28;20020;-48
2023/07/29 09:36:32;;;;;;;2.80;2.50;;;20.40;99.90;;;;;;5055376;28;20048;-50
2023/07/29 09:38:58;;;;;;;2.83;2.60;;;20.30;99.90;;;;;;5054917;28;20060;-54
2023/07/29 09:41:25;;;;;;;3.35;2.67;;;20.20;99.90;;;;;;5054893;28;20025;-51
2023/07/29 09:44:00;;;;;;;3.17;2.15;;;20.20;99.90;;;;;;5054974;28;20535;-51
2023/07/29 09:46:33;;;;;;;4.88;2.47;;;20.10;99.90;;;;;;5055138;28;20040;-47
2023/07/29 09:48:59;;;;;;;3.22;2.70;;;20.20;99.90;;;;;;5053816;28;20041;-47
2023/07/29 09:51:25;;;;;;;6.78;2.70;;;20.30;99.90;;;;;;5055098;28;20432;-54
2023/07/29 09:53:54;;;;;;;2.90;1.85;;;20.40;99.90;;;;;;5054095;28;20052;-49
2023/07/29 09:56:25;;;;;;;2.38;2.20;;;20.40;99.90;;;;;;5052640;28;20033;-51
2023/07/29 09:58:51;;;;;;;2.15;1.70;;;20.40;99.90;;;;;;5054936;28;20025;-53
2023/07/29 10:01:18;;;;;;;3.28;1.83;;;20.40;99.90;;;;;;5049647;28;20541;-52
2023/07/29 10:03:45;;;;;;;3.20;2.20;;;20.40;99.90;;;;;;5053548;28;20029;-47
2023/07/29 10:06:11;;;;;;;5.63;2.53;;;20.40;99.90;;;;;;5046029;28;20053;-34
2023/07/29 10:08:38;;;;;;;2.90;1.87;;;20.40;99.90;;;;;;5034403;28;20029;-35
2023/07/29 10:11:08;;;;;;;8.10;2.20;;;20.30;99.90;;;;;;5034744;28;20517;-35
2023/07/29 10:13:35;;;;;;;4.30;2.25;;;20.30;99.90;;;;;;5046612;28;20550;-35
2023/07/29 10:16:03;;;;;;;2.85;2.30;;;20.10;99.90;;;;;;5053523;28;20021;-35
2023/07/29 10:18:33;;;;;;;2.55;2.35;;;20.00;99.90;;;;;;5054530;28;20501;-36
2023/07/29 10:21:00;;;;;;;3.10;2.80;;;19.90;99.90;;;;;;5050367;28;20424;-39
2023/07/29 10:23:27;;;;;;;7.00;3.88;;;19.80;99.90;;;;;;5044330;28;20025;-34
2023/07/29 10:26:04;;;;;;;8.30;2.75;;;19.80;99.90;;;;;;5034256;28;20026;-34
2023/07/29 10:28:31;;;;;;;5.00;2.87;;;19.80;99.90;;;;;;5051379;28;20025;-35
2023/07/29 10:30:58;;;;;;;3.23;2.97;;;19.70;99.90;;;;;;5054225;28;20278;-39
2023/07/29 10:33:24;;;;;;;4.82;3.08;;;19.70;99.90;;;;;;5053952;28;20044;-35
2023/07/29 10:35:51;;;;;;;4.60;2.78;;;19.70;99.90;;;;;;5053967;28;20409;-36
2023/07/29 10:38:19;;;;;;;3.30;2.97;;;19.70;99.90;;;;;;5053209;28;20036;-34
2023/07/29 10:40:52;;;;;;;;;;;19.70;99.90;;;;;;5053634;28;20496;-38
2023/07/29 10:43:32;;;;;;;5.72;2.78;;;19.70;99.90;;;;;;5052588;28;19904;-53
2023/07/29 10:46:16;;;;;;;2.90;2.17;;;19.80;99.90;;;;;;5053798;28;20029;-53
2023/07/29 10:48:43;;;;;;;2.60;1.98;;;19.80;99.90;;;;;;5053533;28;20041;-48
2023/07/29 10:51:32;;;;;;;2.05;1.83;;;19.90;99.90;;;;;;5053701;28;20025;-52
2023/07/29 10:54:18;;;;;;;2.00;1.88;;;19.90;99.90;;;;;;5048965;28;20064;-50
2023/07/29 10:56:48;;;;;;;2.25;1.70;;;19.80;99.90;;;;;;5052396;28;20044;-32
2023/07/29 10:59:17;;;;;;;2.63;1.48;;;19.80;99.90;;;;;;5034755;28;20033;-35
2023/07/29 11:01:58;;;;;;;1.00;1.00;;;19.80;99.90;;;;;;5041278;28;20044;-32
2023/07/29 11:04:30;;;;;;;1.77;0.90;;;19.70;99.90;;;;;;5034505;28;20108;-34
2023/07/29 11:07:06;;;;;;;1.17;0.80;;;19.60;99.90;;;;;;5033836;28;20088;-35
2023/07/29 11:09:41;;;;;;;0.55;0.55;;;19.60;99.90;;;;;;5036264;28;20160;-35
2023/07/29 11:12:40;;;;;;;2.50;1.20;;;19.50;99.90;;;;;;5042316;28;20025;-35
2023/07/29 11:15:13;;;;;;;3.20;0.90;;;19.40;99.90;;;;;;5037198;28;20478;-35
2023/07/29 11:17:47;;;;;;;1.50;0.93;;;19.30;99.90;;;;;;5043890;28;20025;-33
2023/07/29 11:20:14;;;;;;;0.50;0.50;;;19.30;99.90;;;;;;5053442;28;20020;-33
2023/07/29 11:22:40;;;;;;;0.60;0.60;;;19.10;99.90;;;;;;5034700;28;20036;-33
2023/07/29 11:25:09;;;;;;;0.75;0.75;;;19.00;99.90;;;;;;5041484;28;20025;-34
2023/07/29 11:27:35;;;;;;;1.38;0.98;;;19.00;99.90;;;;;;5038599;28;20040;-34
2023/07/29 11:30:04;;;;;;;1.02;0.50;;;18.90;99.90;;;;;;5039402;28;20389;-34
2023/07/29 11:32:30;;;;;;;0.93;0.60;;;19.00;99.90;;;;;;5033361;28;20037;-35
2023/07/29 11:34:56;;;;;;;1.35;0.60;;;19.00;99.90;;;;;;5052251;28;20033;-34
2023/07/29 11:37:22;;;;;;;1.25;1.15;;;19.00;99.90;;;;;;5052900;28;20071;-35
2023/07/29 11:39:48;;;;;;;5.75;0.80;;;19.10;99.90;;;;;;5052790;28;20032;-36
2023/07/29 11:42:14;;;;;;;0.70;0.70;;;19.20;99.90;;;;;;5052835;28;20021;-35
2023/07/29 11:44:41;;;;;;;3.47;1.50;;;19.30;99.90;;;;;;5052104;28;20446;-36
2023/07/29 11:47:11;;;;;;;2.17;1.77;;;19.50;99.90;;;;;;5052951;28;20049;-35
2023/07/29 11:49:39;;;;;;;5.35;1.33;;;19.90;99.90;;;;;;5040316;28;20178;-35
2023/07/29 11:52:09;;;;;;;1.42;1.10;;;20.40;99.90;;;;;;5053040;28;20497;-35
2023/07/29 11:54:38;;;;;;;1.58;1.40;;;20.80;99.90;;;;;;5052824;28;20551;-36
2023/07/29 11:57:08;;;;;;;1.35;1.25;;;21.30;99.90;;;;;;5052643;28;20021;-35
2023/07/29 11:59:37;;;;;;;1.90;1.40;;;21.50;99.90;;;;;;5052708;28;20029;-35
2023/07/29 12:02:10;;;;;;;1.95;1.10;;;21.70;99.90;;;;;;5051884;28;20029;-35
2023/07/29 12:04:38;;;;;;;1.33;1.10;;;21.60;99.90;;;;;;5051911;28;20145;-35
2023/07/29 12:07:04;;;;;;;;;;;21.40;99.90;;;;;;5052835;28;20036;-36
2023/07/29 12:09:30;;;;;;;1.23;1.13;;;21.30;99.90;;;;;;5052347;28;19913;-34
2023/07/29 12:11:56;;;;;;;1.45;1.35;;;21.20;99.90;;;;;;5052774;28;20095;-35
2023/07/29 12:14:25;;;;;;;1.88;1.30;;;21.00;99.90;;;;;;5052524;28;20025;-52
2023/07/29 12:16:52;;;;;;;2.05;1.50;;;21.00;99.90;;;;;;5052449;28;20477;-51
2023/07/29 12:19:18;;;;;;;1.30;1.02;;;21.10;99.90;;;;;;5051995;28;20029;-50
2023/07/29 12:21:44;;;;;;;1.27;1.17;;;21.10;99.90;;;;;;5047907;28;20025;-53
2023/07/29 12:24:13;;;;;;;2.00;1.30;;;21.10;99.90;;;;;;5040860;28;20484;-56
2023/07/29 12:26:40;;;;;;;2.38;1.65;;;21.20;99.90;;;;;;5052201;28;20056;-52
2023/07/29 12:29:16;;;;;;;4.43;1.58;;;21.30;99.90;;;;;;5052313;28;20551;-50
2023/07/29 12:31:42;;;;;;;2.22;1.50;;;21.30;99.90;;;;;;5052252;28;20496;-52
2023/07/29 12:34:08;;;;;;;1.40;1.30;;;21.30;99.90;;;;;;5051009;28;20029;-49
2023/07/29 12:36:46;;;;;;;2.05;1.50;;;21.40;99.90;;;;;;5051221;28;20163;-50
2023/07/29 12:39:18;;;;;;;;;;;21.50;99.90;;;;;;5051931;28;20115;-47
2023/07/29 12:41:44;;;;;;;1.40;1.30;;;21.50;99.90;;;;;;5052495;28;19909;-52
2023/07/29 12:44:10;;;;;;;1.02;1.02;;;21.50;99.90;;;;;;5053249;28;20363;-50
2023/07/29 12:46:36;;;;;;;2.13;1.52;;;21.40;99.90;;;;;;5056053;28;20489;-50
2023/07/29 12:49:01;;;;;;;6.85;1.50;;;21.30;99.90;;;;;;5055374;28;20033;-50